Imperial, Nebraska
Current Conditions -  °F | °C
As of 1:53 AM on Monday 24 Nov 2014 (Local Time) from KIML Reporting Station
Clear Clear  
Wind Chill: 19°   Ceiling: Unl
Heat Index: 30°   Visibility: 10mi
Dew Point: 15°   Wind: 16mph
Humidity: 54%   Direction: 290°WNW
Pressure: 29.76"   Gusts: NA
Location:  40.52°N, 101.64°W
Report Text: KIML 240853Z AUTO 29014KT 10SM CLR M01/M09 A2976 RMK AO2 SLP089 T10111094 56005
Loading
Personal Weather Stations






























Interactive Weather Map New forecast layout! Learn more

10-Day Weather Forecast

Advertisements
Track Severe Weather on mobile